sensor_id;sensor_type;location;lat;lon;timestamp;P1;durP1;ratioP1;P2;durP2;ratioP2
68082;SDS011;54870;50.336;3.506;2022-09-13T00:00:18;5.93;;;2.10;;
68082;SDS011;54870;50.336;3.506;2022-09-13T00:02:44;6.80;;;2.38;;
68082;SDS011;54870;50.336;3.506;2022-09-13T00:05:10;5.20;;;2.50;;
68082;SDS011;54870;50.336;3.506;2022-09-13T00:07:36;3.88;;;2.20;;
68082;SDS011;54870;50.336;3.506;2022-09-13T00:10:02;3.53;;;2.05;;
68082;SDS011;54870;50.336;3.506;2022-09-13T00:12:28;4.00;;;1.98;;
68082;SDS011;54870;50.336;3.506;2022-09-13T00:14:54;3.78;;;2.30;;
68082;SDS011;54870;50.336;3.506;2022-09-13T00:17:20;2.85;;;1.95;;
68082;SDS011;54870;50.336;3.506;2022-09-13T00:19:46;4.53;;;2.30;;
68082;SDS011;54870;50.336;3.506;2022-09-13T00:22:12;3.92;;;2.17;;
68082;SDS011;54870;50.336;3.506;2022-09-13T00:24:38;3.15;;;2.00;;
68082;SDS011;54870;50.336;3.506;2022-09-13T00:27:05;4.78;;;2.40;;
68082;SDS011;54870;50.336;3.506;2022-09-13T00:29:31;3.22;;;2.05;;
68082;SDS011;54870;50.336;3.506;2022-09-13T00:31:57;5.55;;;2.38;;
68082;SDS011;54870;50.336;3.506;2022-09-13T00:34:23;3.70;;;2.17;;
68082;SDS011;54870;50.336;3.506;2022-09-13T00:36:49;4.35;;;2.45;;
68082;SDS011;54870;50.336;3.506;2022-09-13T00:39:15;3.28;;;2.20;;
68082;SDS011;54870;50.336;3.506;2022-09-13T00:41:41;3.08;;;1.95;;
68082;SDS011;54870;50.336;3.506;2022-09-13T00:46:52;2.53;;;1.88;;
68082;SDS011;54870;50.336;3.506;2022-09-13T00:49:37;2.72;;;1.80;;
68082;SDS011;54870;50.336;3.506;2022-09-13T00:52:06;2.58;;;1.73;;
68082;SDS011;54870;50.336;3.506;2022-09-13T00:54:41;3.38;;;1.80;;
68082;SDS011;54870;50.336;3.506;2022-09-13T00:57:07;2.70;;;1.80;;
68082;SDS011;54870;50.336;3.506;2022-09-13T00:59:39;3.60;;;2.13;;
68082;SDS011;54870;50.336;3.506;2022-09-13T01:02:07;3.75;;;2.00;;
68082;SDS011;54870;50.336;3.506;2022-09-13T01:04:33;4.70;;;1.90;;
68082;SDS011;54870;50.336;3.506;2022-09-13T01:07:01;5.18;;;1.77;;
68082;SDS011;54870;50.336;3.506;2022-09-13T01:09:28;2.58;;;1.50;;
68082;SDS011;54870;50.336;3.506;2022-09-13T01:12:40;3.70;;;1.90;;
68082;SDS011;54870;50.336;3.506;2022-09-13T01:14:47;4.47;;;1.80;;
68082;SDS011;54870;50.336;3.506;2022-09-13T01:17:14;3.78;;;1.70;;
68082;SDS011;54870;50.336;3.506;2022-09-13T01:19:40;3.70;;;1.58;;
68082;SDS011;54870;50.336;3.506;2022-09-13T01:30:14;4.40;;;2.05;;
68082;SDS011;54870;50.336;3.506;2022-09-13T01:35:34;2.92;;;2.20;;
68082;SDS011;54870;50.336;3.506;2022-09-13T01:40:55;4.47;;;1.70;;
68082;SDS011;54870;50.336;3.506;2022-09-13T01:46:23;3.05;;;2.10;;
68082;SDS011;54870;50.336;3.506;2022-09-13T01:49:11;4.55;;;2.13;;
68082;SDS011;54870;50.336;3.506;2022-09-13T01:51:43;4.68;;;2.35;;
68082;SDS011;54870;50.336;3.506;2022-09-13T01:54:12;2.05;;;1.70;;
68082;SDS011;54870;50.336;3.506;2022-09-13T02:01:56;3.40;;;2.25;;
68082;SDS011;54870;50.336;3.506;2022-09-13T02:04:26;3.08;;;1.70;;
68082;SDS011;54870;50.336;3.506;2022-09-13T02:06:57;5.53;;;1.80;;
68082;SDS011;54870;50.336;3.506;2022-09-13T02:09:25;5.32;;;1.88;;
68082;SDS011;54870;50.336;3.506;2022-09-13T02:11:53;6.18;;;2.08;;
68082;SDS011;54870;50.336;3.506;2022-09-13T02:14:24;5.28;;;2.28;;
68082;SDS011;54870;50.336;3.506;2022-09-13T02:16:53;2.70;;;1.88;;
68082;SDS011;54870;50.336;3.506;2022-09-13T02:19:31;5.03;;;2.00;;
68082;SDS011;54870;50.336;3.506;2022-09-13T02:22:00;5.53;;;2.47;;
68082;SDS011;54870;50.336;3.506;2022-09-13T02:24:34;7.22;;;2.30;;
68082;SDS011;54870;50.336;3.506;2022-09-13T02:27:02;5.55;;;2.50;;
68082;SDS011;54870;50.336;3.506;2022-09-13T02:29:30;6.03;;;2.63;;
68082;SDS011;54870;50.336;3.506;2022-09-13T02:31:59;3.80;;;2.33;;
68082;SDS011;54870;50.336;3.506;2022-09-13T02:34:33;5.43;;;2.40;;
68082;SDS011;54870;50.336;3.506;2022-09-13T02:37:00;4.70;;;2.57;;
68082;SDS011;54870;50.336;3.506;2022-09-13T02:39:28;2.97;;;2.08;;
68082;SDS011;54870;50.336;3.506;2022-09-13T02:42:05;4.40;;;2.33;;
68082;SDS011;54870;50.336;3.506;2022-09-13T02:44:35;3.67;;;2.50;;
68082;SDS011;54870;50.336;3.506;2022-09-13T02:47:10;7.35;;;2.20;;
68082;SDS011;54870;50.336;3.506;2022-09-13T02:49:47;3.70;;;2.33;;
68082;SDS011;54870;50.336;3.506;2022-09-13T02:55:46;12.27;;;3.20;;
68082;SDS011;54870;50.336;3.506;2022-09-13T02:57:52;7.65;;;3.20;;
68082;SDS011;54870;50.336;3.506;2022-09-13T03:00:21;7.15;;;3.05;;
68082;SDS011;54870;50.336;3.506;2022-09-13T03:02:47;9.57;;;2.85;;
68082;SDS011;54870;50.336;3.506;2022-09-13T03:05:14;5.13;;;2.70;;
68082;SDS011;54870;50.336;3.506;2022-09-13T03:07:41;4.85;;;2.60;;
68082;SDS011;54870;50.336;3.506;2022-09-13T03:10:11;5.40;;;2.65;;
68082;SDS011;54870;50.336;3.506;2022-09-13T03:20:27;4.68;;;2.15;;
68082;SDS011;54870;50.336;3.506;2022-09-13T03:28:00;4.95;;;2.60;;
68082;SDS011;54870;50.336;3.506;2022-09-13T03:30:28;5.47;;;2.85;;
68082;SDS011;54870;50.336;3.506;2022-09-13T03:32:57;3.72;;;2.30;;
68082;SDS011;54870;50.336;3.506;2022-09-13T03:35:31;4.38;;;2.60;;
68082;SDS011;54870;50.336;3.506;2022-09-13T03:38:07;6.18;;;2.50;;
68082;SDS011;54870;50.336;3.506;2022-09-13T03:40:41;4.22;;;2.50;;
68082;SDS011;54870;50.336;3.506;2022-09-13T03:45:36;6.63;;;2.78;;
68082;SDS011;54870;50.336;3.506;2022-09-13T03:48:03;3.50;;;2.40;;
68082;SDS011;54870;50.336;3.506;2022-09-13T03:50:30;4.53;;;2.53;;
68082;SDS011;54870;50.336;3.506;2022-09-13T03:53:02;4.82;;;2.47;;
68082;SDS011;54870;50.336;3.506;2022-09-13T03:55:30;5.30;;;2.55;;
68082;SDS011;54870;50.336;3.506;2022-09-13T03:57:57;5.75;;;2.60;;
68082;SDS011;54870;50.336;3.506;2022-09-13T04:00:23;4.43;;;2.53;;
68082;SDS011;54870;50.336;3.506;2022-09-13T04:02:49;5.03;;;2.53;;
68082;SDS011;54870;50.336;3.506;2022-09-13T04:05:15;3.85;;;2.60;;
68082;SDS011;54870;50.336;3.506;2022-09-13T04:07:41;2.90;;;2.03;;
68082;SDS011;54870;50.336;3.506;2022-09-13T04:10:08;3.92;;;2.53;;
68082;SDS011;54870;50.336;3.506;2022-09-13T04:12:34;4.45;;;2.40;;
68082;SDS011;54870;50.336;3.506;2022-09-13T04:15:00;3.50;;;2.45;;
68082;SDS011;54870;50.336;3.506;2022-09-13T04:17:26;5.15;;;2.60;;
68082;SDS011;54870;50.336;3.506;2022-09-13T04:19:52;4.43;;;2.40;;
68082;SDS011;54870;50.336;3.506;2022-09-13T04:22:18;3.65;;;2.33;;
68082;SDS011;54870;50.336;3.506;2022-09-13T04:24:44;5.80;;;2.58;;
68082;SDS011;54870;50.336;3.506;2022-09-13T04:27:10;7.53;;;3.00;;
68082;SDS011;54870;50.336;3.506;2022-09-13T04:29:37;6.45;;;3.13;;
68082;SDS011;54870;50.336;3.506;2022-09-13T04:32:03;3.90;;;2.70;;
68082;SDS011;54870;50.336;3.506;2022-09-13T04:34:29;7.55;;;2.97;;
68082;SDS011;54870;50.336;3.506;2022-09-13T04:36:55;6.47;;;3.13;;
68082;SDS011;54870;50.336;3.506;2022-09-13T04:39:21;6.65;;;2.95;;
68082;SDS011;54870;50.336;3.506;2022-09-13T04:41:48;7.03;;;2.75;;
68082;SDS011;54870;50.336;3.506;2022-09-13T04:44:16;6.22;;;3.00;;
68082;SDS011;54870;50.336;3.506;2022-09-13T04:46:42;6.53;;;3.15;;
68082;SDS011;54870;50.336;3.506;2022-09-13T04:49:12;6.65;;;3.38;;
68082;SDS011;54870;50.336;3.506;2022-09-13T04:51:38;6.68;;;3.03;;
68082;SDS011;54870;50.336;3.506;2022-09-13T04:54:04;9.25;;;3.55;;
68082;SDS011;54870;50.336;3.506;2022-09-13T04:56:30;15.75;;;7.38;;
68082;SDS011;54870;50.336;3.506;2022-09-13T04:58:56;12.38;;;5.78;;
68082;SDS011;54870;50.336;3.506;2022-09-13T05:01:22;9.27;;;3.38;;
68082;SDS011;54870;50.336;3.506;2022-09-13T05:03:49;7.75;;;2.75;;
68082;SDS011;54870;50.336;3.506;2022-09-13T05:06:16;6.90;;;2.80;;
68082;SDS011;54870;50.336;3.506;2022-09-13T05:08:42;5.63;;;3.15;;
68082;SDS011;54870;50.336;3.506;2022-09-13T05:11:08;5.80;;;2.92;;
68082;SDS011;54870;50.336;3.506;2022-09-13T05:13:35;4.55;;;2.80;;
68082;SDS011;54870;50.336;3.506;2022-09-13T05:16:02;4.95;;;2.90;;
68082;SDS011;54870;50.336;3.506;2022-09-13T05:18:29;4.35;;;2.63;;
68082;SDS011;54870;50.336;3.506;2022-09-13T05:20:55;5.45;;;3.10;;
68082;SDS011;54870;50.336;3.506;2022-09-13T05:23:22;8.25;;;3.22;;
68082;SDS011;54870;50.336;3.506;2022-09-13T05:25:54;4.80;;;3.00;;
68082;SDS011;54870;50.336;3.506;2022-09-13T05:28:21;4.57;;;3.17;;
68082;SDS011;54870;50.336;3.506;2022-09-13T05:31:01;6.05;;;3.40;;
68082;SDS011;54870;50.336;3.506;2022-09-13T05:33:29;7.32;;;3.50;;
68082;SDS011;54870;50.336;3.506;2022-09-13T05:35:55;5.03;;;3.15;;
68082;SDS011;54870;50.336;3.506;2022-09-13T05:38:21;6.07;;;3.10;;
68082;SDS011;54870;50.336;3.506;2022-09-13T05:40:52;6.28;;;3.22;;
68082;SDS011;54870;50.336;3.506;2022-09-13T05:43:20;7.13;;;3.22;;
68082;SDS011;54870;50.336;3.506;2022-09-13T05:45:46;5.20;;;3.08;;
68082;SDS011;54870;50.336;3.506;2022-09-13T05:48:12;6.38;;;3.28;;
68082;SDS011;54870;50.336;3.506;2022-09-13T05:50:38;7.22;;;3.70;;
68082;SDS011;54870;50.336;3.506;2022-09-13T05:53:04;7.60;;;3.72;;
68082;SDS011;54870;50.336;3.506;2022-09-13T05:55:30;9.77;;;3.67;;
68082;SDS011;54870;50.336;3.506;2022-09-13T05:57:57;6.63;;;3.85;;
68082;SDS011;54870;50.336;3.506;2022-09-13T06:00:23;10.05;;;4.40;;
68082;SDS011;54870;50.336;3.506;2022-09-13T06:02:49;11.27;;;4.28;;
68082;SDS011;54870;50.336;3.506;2022-09-13T06:05:15;11.00;;;4.40;;
68082;SDS011;54870;50.336;3.506;2022-09-13T06:07:41;10.20;;;4.55;;
68082;SDS011;54870;50.336;3.506;2022-09-13T06:10:07;8.95;;;3.50;;
68082;SDS011;54870;50.336;3.506;2022-09-13T06:12:34;8.15;;;3.88;;
68082;SDS011;54870;50.336;3.506;2022-09-13T06:15:00;8.85;;;3.58;;
68082;SDS011;54870;50.336;3.506;2022-09-13T06:17:26;8.65;;;3.72;;
68082;SDS011;54870;50.336;3.506;2022-09-13T06:19:52;9.23;;;3.47;;
68082;SDS011;54870;50.336;3.506;2022-09-13T06:22:18;6.80;;;3.60;;
68082;SDS011;54870;50.336;3.506;2022-09-13T06:24:44;7.45;;;3.50;;
68082;SDS011;54870;50.336;3.506;2022-09-13T06:27:10;7.68;;;4.07;;
68082;SDS011;54870;50.336;3.506;2022-09-13T06:29:36;6.65;;;3.30;;
68082;SDS011;54870;50.336;3.506;2022-09-13T06:32:02;8.00;;;3.28;;
68082;SDS011;54870;50.336;3.506;2022-09-13T06:34:29;7.75;;;3.67;;
68082;SDS011;54870;50.336;3.506;2022-09-13T06:36:55;6.05;;;3.17;;
68082;SDS011;54870;50.336;3.506;2022-09-13T06:39:21;8.05;;;3.75;;
68082;SDS011;54870;50.336;3.506;2022-09-13T06:41:47;8.35;;;3.65;;
68082;SDS011;54870;50.336;3.506;2022-09-13T06:44:13;5.35;;;3.67;;
68082;SDS011;54870;50.336;3.506;2022-09-13T06:46:39;6.88;;;3.65;;
68082;SDS011;54870;50.336;3.506;2022-09-13T06:49:05;6.00;;;3.47;;
68082;SDS011;54870;50.336;3.506;2022-09-13T06:51:32;6.97;;;4.25;;
68082;SDS011;54870;50.336;3.506;2022-09-13T06:53:58;8.48;;;4.28;;
68082;SDS011;54870;50.336;3.506;2022-09-13T06:56:25;8.52;;;4.20;;
68082;SDS011;54870;50.336;3.506;2022-09-13T06:58:54;6.78;;;4.03;;
68082;SDS011;54870;50.336;3.506;2022-09-13T07:01:24;6.78;;;3.70;;
68082;SDS011;54870;50.336;3.506;2022-09-13T07:03:52;8.02;;;4.63;;
68082;SDS011;54870;50.336;3.506;2022-09-13T07:06:19;9.00;;;4.30;;
68082;SDS011;54870;50.336;3.506;2022-09-13T07:08:45;9.45;;;4.32;;
68082;SDS011;54870;50.336;3.506;2022-09-13T07:11:12;5.93;;;3.70;;
68082;SDS011;54870;50.336;3.506;2022-09-13T07:13:39;7.63;;;3.78;;
68082;SDS011;54870;50.336;3.506;2022-09-13T07:16:08;10.05;;;4.00;;
68082;SDS011;54870;50.336;3.506;2022-09-13T07:18:34;14.15;;;4.40;;
68082;SDS011;54870;50.336;3.506;2022-09-13T07:21:05;9.85;;;4.95;;
68082;SDS011;54870;50.336;3.506;2022-09-13T07:23:31;9.50;;;4.47;;
68082;SDS011;54870;50.336;3.506;2022-09-13T07:25:58;8.27;;;4.32;;
68082;SDS011;54870;50.336;3.506;2022-09-13T07:28:37;11.40;;;3.90;;
68082;SDS011;54870;50.336;3.506;2022-09-13T07:31:07;12.82;;;4.20;;
68082;SDS011;54870;50.336;3.506;2022-09-13T07:33:33;8.15;;;3.22;;
68082;SDS011;54870;50.336;3.506;2022-09-13T07:36:00;6.65;;;3.00;;
68082;SDS011;54870;50.336;3.506;2022-09-13T07:38:30;6.60;;;3.60;;
68082;SDS011;54870;50.336;3.506;2022-09-13T07:40:56;9.77;;;3.90;;
68082;SDS011;54870;50.336;3.506;2022-09-13T07:43:24;7.65;;;3.75;;
68082;SDS011;54870;50.336;3.506;2022-09-13T07:46:00;7.57;;;3.63;;
68082;SDS011;54870;50.336;3.506;2022-09-13T07:48:27;7.68;;;3.85;;
68082;SDS011;54870;50.336;3.506;2022-09-13T07:51:00;9.18;;;3.70;;
68082;SDS011;54870;50.336;3.506;2022-09-13T07:53:26;9.07;;;3.83;;
68082;SDS011;54870;50.336;3.506;2022-09-13T07:55:53;8.77;;;3.45;;
68082;SDS011;54870;50.336;3.506;2022-09-13T07:58:19;8.02;;;3.90;;
68082;SDS011;54870;50.336;3.506;2022-09-13T08:00:45;9.68;;;3.55;;
68082;SDS011;54870;50.336;3.506;2022-09-13T08:03:11;7.30;;;3.70;;
68082;SDS011;54870;50.336;3.506;2022-09-13T08:05:38;9.95;;;4.00;;
68082;SDS011;54870;50.336;3.506;2022-09-13T08:08:04;10.93;;;4.00;;
68082;SDS011;54870;50.336;3.506;2022-09-13T08:10:31;10.43;;;3.90;;
68082;SDS011;54870;50.336;3.506;2022-09-13T08:12:57;8.73;;;3.78;;
68082;SDS011;54870;50.336;3.506;2022-09-13T08:15:24;13.20;;;5.22;;
68082;SDS011;54870;50.336;3.506;2022-09-13T08:17:50;12.10;;;4.85;;
68082;SDS011;54870;50.336;3.506;2022-09-13T08:20:18;14.57;;;4.60;;
68082;SDS011;54870;50.336;3.506;2022-09-13T08:22:44;15.00;;;5.15;;
68082;SDS011;54870;50.336;3.506;2022-09-13T08:25:10;13.60;;;4.85;;
68082;SDS011;54870;50.336;3.506;2022-09-13T08:27:36;14.38;;;5.45;;
68082;SDS011;54870;50.336;3.506;2022-09-13T08:30:02;12.77;;;4.80;;
68082;SDS011;54870;50.336;3.506;2022-09-13T08:32:29;10.77;;;5.05;;
68082;SDS011;54870;50.336;3.506;2022-09-13T08:34:55;15.00;;;5.65;;
68082;SDS011;54870;50.336;3.506;2022-09-13T08:37:21;12.85;;;5.50;;
68082;SDS011;54870;50.336;3.506;2022-09-13T08:39:47;10.77;;;6.22;;
68082;SDS011;54870;50.336;3.506;2022-09-13T08:42:25;12.52;;;6.03;;
68082;SDS011;54870;50.336;3.506;2022-09-13T08:44:54;21.90;;;9.55;;
68082;SDS011;54870;50.336;3.506;2022-09-13T08:49:58;16.25;;;8.02;;
68082;SDS011;54870;50.336;3.506;2022-09-13T08:52:32;14.95;;;7.55;;
68082;SDS011;54870;50.336;3.506;2022-09-13T08:55:01;14.15;;;6.30;;
68082;SDS011;54870;50.336;3.506;2022-09-13T08:57:31;12.40;;;5.57;;
68082;SDS011;54870;50.336;3.506;2022-09-13T09:02:47;8.45;;;4.40;;
68082;SDS011;54870;50.336;3.506;2022-09-13T09:05:18;10.90;;;4.20;;
68082;SDS011;54870;50.336;3.506;2022-09-13T09:07:46;11.20;;;4.40;;
68082;SDS011;54870;50.336;3.506;2022-09-13T09:10:19;12.88;;;4.15;;
68082;SDS011;54870;50.336;3.506;2022-09-13T09:12:57;12.13;;;4.03;;
68082;SDS011;54870;50.336;3.506;2022-09-13T09:15:25;6.22;;;3.88;;
68082;SDS011;54870;50.336;3.506;2022-09-13T09:20:29;10.35;;;4.07;;
68082;SDS011;54870;50.336;3.506;2022-09-13T09:23:03;7.95;;;4.22;;
68082;SDS011;54870;50.336;3.506;2022-09-13T09:25:29;9.13;;;4.97;;
68082;SDS011;54870;50.336;3.506;2022-09-13T09:27:55;8.60;;;4.10;;
68082;SDS011;54870;50.336;3.506;2022-09-13T09:30:33;12.90;;;4.35;;
68082;SDS011;54870;50.336;3.506;2022-09-13T09:33:21;8.10;;;4.40;;
68082;SDS011;54870;50.336;3.506;2022-09-13T09:35:55;10.50;;;5.07;;
68082;SDS011;54870;50.336;3.506;2022-09-13T09:40:49;9.70;;;4.40;;
68082;SDS011;54870;50.336;3.506;2022-09-13T09:43:49;11.13;;;5.68;;
68082;SDS011;54870;50.336;3.506;2022-09-13T09:46:09;8.20;;;4.38;;
68082;SDS011;54870;50.336;3.506;2022-09-13T09:48:39;7.68;;;4.55;;
68082;SDS011;54870;50.336;3.506;2022-09-13T09:51:06;9.90;;;4.75;;
68082;SDS011;54870;50.336;3.506;2022-09-13T09:53:35;11.95;;;4.85;;
68082;SDS011;54870;50.336;3.506;2022-09-13T09:56:51;8.73;;;4.75;;
68082;SDS011;54870;50.336;3.506;2022-09-13T09:58:52;7.65;;;3.95;;
68082;SDS011;54870;50.336;3.506;2022-09-13T10:03:49;8.48;;;3.65;;
68082;SDS011;54870;50.336;3.506;2022-09-13T10:06:19;13.68;;;3.78;;
68082;SDS011;54870;50.336;3.506;2022-09-13T10:11:38;5.78;;;3.08;;
68082;SDS011;54870;50.336;3.506;2022-09-13T10:14:04;6.68;;;3.30;;
68082;SDS011;54870;50.336;3.506;2022-09-13T10:16:30;7.13;;;3.50;;
68082;SDS011;54870;50.336;3.506;2022-09-13T10:19:14;7.47;;;3.47;;
68082;SDS011;54870;50.336;3.506;2022-09-13T10:21:52;5.90;;;3.40;;
68082;SDS011;54870;50.336;3.506;2022-09-13T10:24:24;8.25;;;3.78;;
68082;SDS011;54870;50.336;3.506;2022-09-13T10:26:50;8.57;;;3.90;;
68082;SDS011;54870;50.336;3.506;2022-09-13T10:29:16;9.52;;;3.63;;
68082;SDS011;54870;50.336;3.506;2022-09-13T10:31:43;6.72;;;3.40;;
68082;SDS011;54870;50.336;3.506;2022-09-13T10:34:15;9.77;;;3.63;;
68082;SDS011;54870;50.336;3.506;2022-09-13T10:36:50;8.65;;;3.67;;
68082;SDS011;54870;50.336;3.506;2022-09-13T10:41:51;9.60;;;3.70;;
68082;SDS011;54870;50.336;3.506;2022-09-13T10:44:26;9.68;;;4.10;;
68082;SDS011;54870;50.336;3.506;2022-09-13T10:46:53;7.82;;;3.38;;
68082;SDS011;54870;50.336;3.506;2022-09-13T10:52:23;8.55;;;3.63;;
68082;SDS011;54870;50.336;3.506;2022-09-13T10:54:49;11.68;;;3.75;;
68082;SDS011;54870;50.336;3.506;2022-09-13T10:57:49;8.27;;;4.00;;
68082;SDS011;54870;50.336;3.506;2022-09-13T11:00:09;9.30;;;3.72;;
68082;SDS011;54870;50.336;3.506;2022-09-13T11:02:52;11.45;;;3.58;;
68082;SDS011;54870;50.336;3.506;2022-09-13T11:05:21;8.60;;;4.20;;
68082;SDS011;54870;50.336;3.506;2022-09-13T11:10:31;9.60;;;4.30;;
68082;SDS011;54870;50.336;3.506;2022-09-13T11:13:02;9.35;;;4.40;;
68082;SDS011;54870;50.336;3.506;2022-09-13T11:15:37;10.43;;;4.22;;
68082;SDS011;54870;50.336;3.506;2022-09-13T11:18:23;8.98;;;4.30;;
68082;SDS011;54870;50.336;3.506;2022-09-13T11:25:50;9.43;;;3.90;;
68082;SDS011;54870;50.336;3.506;2022-09-13T11:28:24;7.43;;;3.77;;
68082;SDS011;54870;50.336;3.506;2022-09-13T11:39:07;5.82;;;3.20;;
68082;SDS011;54870;50.336;3.506;2022-09-13T11:41:53;11.30;;;3.60;;
68082;SDS011;54870;50.336;3.506;2022-09-13T11:44:36;8.77;;;3.50;;
68082;SDS011;54870;50.336;3.506;2022-09-13T11:55:12;7.85;;;3.95;;
68082;SDS011;54870;50.336;3.506;2022-09-13T11:57:41;7.03;;;3.47;;
68082;SDS011;54870;50.336;3.506;2022-09-13T12:00:19;9.85;;;4.40;;
68082;SDS011;54870;50.336;3.506;2022-09-13T12:02:48;8.85;;;4.10;;
68082;SDS011;54870;50.336;3.506;2022-09-13T12:05:19;9.60;;;4.57;;
68082;SDS011;54870;50.336;3.506;2022-09-13T12:07:54;9.20;;;4.93;;
68082;SDS011;54870;50.336;3.506;2022-09-13T12:10:27;8.45;;;4.13;;
68082;SDS011;54870;50.336;3.506;2022-09-13T12:12:54;8.90;;;4.55;;
68082;SDS011;54870;50.336;3.506;2022-09-13T12:15:38;9.25;;;5.40;;
68082;SDS011;54870;50.336;3.506;2022-09-13T12:18:22;8.77;;;5.30;;
68082;SDS011;54870;50.336;3.506;2022-09-13T12:20:53;12.18;;;4.85;;
68082;SDS011;54870;50.336;3.506;2022-09-13T12:23:26;8.60;;;5.30;;
68082;SDS011;54870;50.336;3.506;2022-09-13T12:26:29;9.68;;;5.75;;
68082;SDS011;54870;50.336;3.506;2022-09-13T12:29:47;10.52;;;5.78;;
68082;SDS011;54870;50.336;3.506;2022-09-13T12:31:42;12.65;;;5.72;;
68082;SDS011;54870;50.336;3.506;2022-09-13T12:34:09;10.55;;;5.85;;
68082;SDS011;54870;50.336;3.506;2022-09-13T12:41:41;9.77;;;5.78;;
68082;SDS011;54870;50.336;3.506;2022-09-13T12:49:37;9.40;;;5.70;;
68082;SDS011;54870;50.336;3.506;2022-09-13T12:59:49;11.48;;;5.80;;
68082;SDS011;54870;50.336;3.506;2022-09-13T13:02:27;11.00;;;5.90;;
68082;SDS011;54870;50.336;3.506;2022-09-13T13:04:55;10.27;;;5.47;;
68082;SDS011;54870;50.336;3.506;2022-09-13T13:07:22;13.05;;;5.57;;
68082;SDS011;54870;50.336;3.506;2022-09-13T13:09:50;9.00;;;4.97;;
68082;SDS011;54870;50.336;3.506;2022-09-13T13:12:25;9.93;;;5.10;;
68082;SDS011;54870;50.336;3.506;2022-09-13T13:14:52;11.48;;;5.20;;
68082;SDS011;54870;50.336;3.506;2022-09-13T13:19:58;11.25;;;5.75;;
68082;SDS011;54870;50.336;3.506;2022-09-13T13:27:50;9.45;;;5.38;;
68082;SDS011;54870;50.336;3.506;2022-09-13T13:33:16;9.85;;;5.50;;
68082;SDS011;54870;50.336;3.506;2022-09-13T13:35:42;17.20;;;10.13;;
68082;SDS011;54870;50.336;3.506;2022-09-13T13:40:47;9.50;;;5.30;;
68082;SDS011;54870;50.336;3.506;2022-09-13T13:43:16;12.05;;;4.90;;
68082;SDS011;54870;50.336;3.506;2022-09-13T13:46:36;11.57;;;5.18;;
68082;SDS011;54870;50.336;3.506;2022-09-13T13:48:44;14.52;;;5.22;;
68082;SDS011;54870;50.336;3.506;2022-09-13T13:53:36;13.30;;;5.78;;
68082;SDS011;54870;50.336;3.506;2022-09-13T13:56:06;10.95;;;5.10;;
68082;SDS011;54870;50.336;3.506;2022-09-13T13:58:36;12.80;;;5.45;;
68082;SDS011;54870;50.336;3.506;2022-09-13T14:01:10;15.30;;;5.55;;
68082;SDS011;54870;50.336;3.506;2022-09-13T14:06:27;11.93;;;5.40;;
68082;SDS011;54870;50.336;3.506;2022-09-13T14:09:22;12.40;;;5.35;;
68082;SDS011;54870;50.336;3.506;2022-09-13T14:12:18;17.50;;;5.57;;
68082;SDS011;54870;50.336;3.506;2022-09-13T14:19:46;12.50;;;4.65;;
68082;SDS011;54870;50.336;3.506;2022-09-13T14:22:20;11.70;;;4.88;;
68082;SDS011;54870;50.336;3.506;2022-09-13T14:24:50;11.90;;;4.60;;
68082;SDS011;54870;50.336;3.506;2022-09-13T14:29:47;13.88;;;5.15;;
68082;SDS011;54870;50.336;3.506;2022-09-13T14:32:17;13.45;;;5.43;;
68082;SDS011;54870;50.336;3.506;2022-09-13T14:34:51;13.02;;;5.57;;
68082;SDS011;54870;50.336;3.506;2022-09-13T14:37:19;9.65;;;5.45;;
68082;SDS011;54870;50.336;3.506;2022-09-13T14:39:53;15.98;;;6.60;;
68082;SDS011;54870;50.336;3.506;2022-09-13T14:44:45;18.13;;;7.28;;
68082;SDS011;54870;50.336;3.506;2022-09-13T14:47:35;15.82;;;6.68;;
68082;SDS011;54870;50.336;3.506;2022-09-13T14:50:06;17.90;;;6.82;;
68082;SDS011;54870;50.336;3.506;2022-09-13T14:55:39;16.08;;;7.30;;
68082;SDS011;54870;50.336;3.506;2022-09-13T14:58:12;13.20;;;6.60;;
68082;SDS011;54870;50.336;3.506;2022-09-13T15:00:45;11.70;;;6.68;;
68082;SDS011;54870;50.336;3.506;2022-09-13T15:03:13;12.48;;;6.80;;
68082;SDS011;54870;50.336;3.506;2022-09-13T15:05:40;15.60;;;7.70;;
68082;SDS011;54870;50.336;3.506;2022-09-13T15:09:13;15.00;;;8.32;;
68082;SDS011;54870;50.336;3.506;2022-09-13T15:11:06;15.40;;;7.43;;
68082;SDS011;54870;50.336;3.506;2022-09-13T15:13:32;17.73;;;8.15;;
68082;SDS011;54870;50.336;3.506;2022-09-13T15:15:59;12.13;;;7.13;;
68082;SDS011;54870;50.336;3.506;2022-09-13T15:18:28;13.02;;;7.88;;
68082;SDS011;54870;50.336;3.506;2022-09-13T15:20:58;12.57;;;7.63;;
68082;SDS011;54870;50.336;3.506;2022-09-13T15:23:38;12.40;;;7.97;;
68082;SDS011;54870;50.336;3.506;2022-09-13T15:26:12;13.75;;;7.93;;
68082;SDS011;54870;50.336;3.506;2022-09-13T15:31:22;13.68;;;7.72;;
68082;SDS011;54870;50.336;3.506;2022-09-13T15:34:09;17.05;;;8.95;;
68082;SDS011;54870;50.336;3.506;2022-09-13T15:36:35;14.60;;;7.85;;
68082;SDS011;54870;50.336;3.506;2022-09-13T15:41:36;17.13;;;8.10;;
68082;SDS011;54870;50.336;3.506;2022-09-13T15:44:07;13.75;;;8.15;;
68082;SDS011;54870;50.336;3.506;2022-09-13T15:46:36;12.98;;;7.90;;
68082;SDS011;54870;50.336;3.506;2022-09-13T15:49:06;31.13;;;22.63;;
68082;SDS011;54870;50.336;3.506;2022-09-13T15:51:32;22.05;;;17.05;;
68082;SDS011;54870;50.336;3.506;2022-09-13T15:54:00;14.18;;;8.65;;
68082;SDS011;54870;50.336;3.506;2022-09-13T15:56:35;15.30;;;7.97;;
68082;SDS011;54870;50.336;3.506;2022-09-13T15:59:04;13.00;;;8.18;;
68082;SDS011;54870;50.336;3.506;2022-09-13T16:01:30;14.30;;;8.95;;
68082;SDS011;54870;50.336;3.506;2022-09-13T16:03:56;13.00;;;8.90;;
68082;SDS011;54870;50.336;3.506;2022-09-13T16:06:22;13.80;;;8.32;;
68082;SDS011;54870;50.336;3.506;2022-09-13T16:08:52;12.45;;;8.02;;
68082;SDS011;54870;50.336;3.506;2022-09-13T16:11:18;13.65;;;8.57;;
68082;SDS011;54870;50.336;3.506;2022-09-13T16:13:44;13.70;;;8.85;;
68082;SDS011;54870;50.336;3.506;2022-09-13T16:16:13;15.80;;;9.68;;
68082;SDS011;54870;50.336;3.506;2022-09-13T16:18:39;12.90;;;8.90;;
68082;SDS011;54870;50.336;3.506;2022-09-13T16:21:05;14.27;;;9.57;;
68082;SDS011;54870;50.336;3.506;2022-09-13T16:23:31;16.15;;;9.50;;
68082;SDS011;54870;50.336;3.506;2022-09-13T16:25:58;17.17;;;10.10;;
68082;SDS011;54870;50.336;3.506;2022-09-13T16:28:24;15.38;;;9.40;;
68082;SDS011;54870;50.336;3.506;2022-09-13T16:30:51;16.83;;;9.88;;
68082;SDS011;54870;50.336;3.506;2022-09-13T16:33:17;18.50;;;10.80;;
68082;SDS011;54870;50.336;3.506;2022-09-13T16:35:43;17.48;;;10.52;;
68082;SDS011;54870;50.336;3.506;2022-09-13T16:38:10;16.60;;;9.52;;
68082;SDS011;54870;50.336;3.506;2022-09-13T16:40:40;15.82;;;10.43;;
68082;SDS011;54870;50.336;3.506;2022-09-13T16:43:06;14.95;;;9.77;;
68082;SDS011;54870;50.336;3.506;2022-09-13T16:45:33;18.65;;;10.90;;
68082;SDS011;54870;50.336;3.506;2022-09-13T16:47:59;16.02;;;9.98;;
68082;SDS011;54870;50.336;3.506;2022-09-13T16:50:25;16.48;;;9.40;;
68082;SDS011;54870;50.336;3.506;2022-09-13T16:52:51;17.63;;;10.07;;
68082;SDS011;54870;50.336;3.506;2022-09-13T16:55:17;15.05;;;8.95;;
68082;SDS011;54870;50.336;3.506;2022-09-13T16:57:43;14.15;;;9.10;;
68082;SDS011;54870;50.336;3.506;2022-09-13T17:00:12;21.95;;;15.82;;
68082;SDS011;54870;50.336;3.506;2022-09-13T17:02:38;19.52;;;13.10;;
68082;SDS011;54870;50.336;3.506;2022-09-13T17:05:04;16.63;;;9.10;;
68082;SDS011;54870;50.336;3.506;2022-09-13T17:07:32;12.50;;;7.90;;
68082;SDS011;54870;50.336;3.506;2022-09-13T17:09:58;15.50;;;7.82;;
68082;SDS011;54870;50.336;3.506;2022-09-13T17:12:25;13.70;;;8.20;;
68082;SDS011;54870;50.336;3.506;2022-09-13T17:14:51;12.70;;;8.07;;
68082;SDS011;54870;50.336;3.506;2022-09-13T17:17:19;16.42;;;8.13;;
68082;SDS011;54870;50.336;3.506;2022-09-13T17:19:45;15.48;;;7.70;;